Time;durP1;ratioP1;P1;durP2;ratioP2;P2;SDS_P1;SDS_P2;PMS_P1;PMS_P2;Temp;Humidity;BMP_temperature;BMP_pressure;BME280_temperature;BME280_humidity;BME280_pressure;Samples;Min_cycle;Max_cycle;Signal;HPM_P1;HPM_P2
2024/01/01 00:00:15;;;;;;;3.63;2.08;;;9.50;1.00;;;;;;5059297;28;20060;-61
2024/01/01 00:02:41;;;;;;;3.40;1.60;;;9.50;99.90;;;;;;5059380;28;20041;-62
2024/01/01 00:05:08;;;;;;;2.08;0.85;;;9.50;99.90;;;;;;5060641;28;20751;-61
2024/01/01 00:07:34;;;;;;;0.00;0.00;;;9.50;1.00;;;;;;5059883;28;20079;-61
2024/01/01 00:09:59;;;;;;;0.00;0.00;;;9.50;1.00;;;;;;5058329;28;20307;-62
2024/01/01 00:12:25;;;;;;;0.00;0.00;;;9.60;99.90;;;;;;5059856;28;20040;-62
2024/01/01 00:14:51;;;;;;;0.00;0.00;;;9.60;1.00;;;;;;5060484;28;20036;-61
2024/01/01 00:17:17;;;;;;;0.00;0.00;;;9.50;1.00;;;;;;5060756;28;20032;-61
2024/01/01 00:19:43;;;;;;;0.00;0.00;;;9.40;1.00;;;;;;5060024;28;20063;-61
2024/01/01 00:22:08;;;;;;;0.00;0.00;;;9.40;99.90;;;;;;5059658;28;20455;-62
2024/01/01 00:24:34;;;;;;;1.88;1.77;;;9.50;99.90;;;;;;5062839;28;20127;-61
2024/01/01 00:27:00;;;;;;;0.98;0.98;;;9.40;1.00;;;;;;5058318;28;20044;-61
2024/01/01 00:29:25;;;;;;;1.40;0.90;;;9.40;99.90;;;;;;5055583;28;20036;-62
2024/01/01 00:31:52;;;;;;;0.13;0.13;;;9.20;99.90;;;;;;5057876;28;20067;-63
2024/01/01 00:34:17;;;;;;;0.00;0.00;;;9.20;99.90;;;;;;5054866;28;20063;-63
2024/01/01 00:36:43;;;;;;;5.07;1.95;;;9.30;99.90;;;;;;5060743;28;20152;-63
2024/01/01 00:39:09;;;;;;;0.77;0.77;;;9.30;99.90;;;;;;5060374;28;20056;-63
2024/01/01 00:41:37;;;;;;;0.00;0.00;;;9.30;99.90;;;;;;5060048;28;20033;-63
2024/01/01 00:44:04;;;;;;;0.15;0.10;;;9.40;99.90;;;;;;5059727;28;20047;-63
2024/01/01 00:46:29;;;;;;;1.42;0.98;;;9.30;99.90;;;;;;5061097;28;20032;-63
2024/01/01 00:48:55;;;;;;;3.15;1.92;;;9.30;1.00;;;;;;5043340;28;20032;-63
2024/01/01 00:51:20;;;;;;;2.58;1.60;;;9.30;1.00;;;;;;5057239;28;20036;-62
2024/01/01 00:53:46;;;;;;;2.13;1.90;;;9.30;99.90;;;;;;5060547;28;20396;-61
2024/01/01 00:56:12;;;;;;;2.33;1.30;;;9.30;54.60;;;;;;5056648;28;20036;-61
2024/01/01 00:58:38;;;;;;;2.17;0.63;;;9.30;21.70;;;;;;5040866;28;20072;-61
2024/01/01 01:01:04;;;;;;;0.00;0.00;;;9.30;1.00;;;;;;5058257;28;20083;-62
2024/01/01 01:03:31;;;;;;;7.47;1.95;;;9.40;99.90;;;;;;5059713;28;20103;-61
2024/01/01 01:05:56;;;;;;;2.78;1.88;;;9.20;1.00;;;;;;5066753;28;20047;-61
2024/01/01 01:08:22;;;;;;;8.93;1.38;;;9.20;1.00;;;;;;5059534;28;20131;-62
2024/01/01 01:10:49;;;;;;;8.20;2.53;;;9.30;1.00;;;;;;5060343;28;20028;-62
2024/01/01 01:13:15;;;;;;;1.80;1.33;;;9.30;99.90;;;;;;5059143;28;20036;-63
2024/01/01 01:15:40;;;;;;;6.60;1.95;;;9.30;99.90;;;;;;5063268;28;20036;-63
2024/01/01 01:18:06;;;;;;;2.78;0.70;;;9.30;99.90;;;;;;5058428;28;20041;-63
2024/01/01 01:20:31;;;;;;;3.92;1.00;;;9.30;99.90;;;;;;5040251;28;20043;-63
2024/01/01 01:22:57;;;;;;;1.45;0.85;;;9.30;26.30;;;;;;5059249;28;20112;-63
2024/01/01 01:25:22;;;;;;;4.18;1.58;;;9.30;99.90;;;;;;5058724;28;20505;-63
2024/01/01 01:27:48;;;;;;;4.72;0.68;;;9.30;1.00;;;;;;5057489;28;20047;-63
2024/01/01 01:30:13;;;;;;;3.20;1.27;;;9.30;1.00;;;;;;5039507;28;20032;-63
2024/01/01 01:32:39;;;;;;;0.10;0.10;;;9.30;99.90;;;;;;5057848;28;20100;-63
2024/01/01 01:35:05;;;;;;;0.68;0.38;;;9.30;1.00;;;;;;5058485;28;20109;-63
2024/01/01 01:37:30;;;;;;;0.10;0.10;;;9.40;1.00;;;;;;5055935;28;20169;-63
2024/01/01 01:39:56;;;;;;;0.75;0.43;;;9.20;1.00;;;;;;5041059;28;20657;-63
2024/01/01 01:42:22;;;;;;;1.88;1.25;;;9.30;32.30;;;;;;5057008;28;20438;-63
2024/01/01 01:44:47;;;;;;;4.72;1.05;;;9.20;1.00;;;;;;5058909;28;20529;-63
2024/01/01 01:47:13;;;;;;;0.10;0.10;;;9.20;99.90;;;;;;5058805;28;20339;-63
2024/01/01 01:49:40;;;;;;;0.73;0.45;;;9.20;99.90;;;;;;5051186;28;20040;-63
2024/01/01 01:52:08;;;;;;;0.00;0.00;;;9.20;1.00;;;;;;5057100;28;20029;-62
2024/01/01 01:54:35;;;;;;;25.90;0.90;;;9.30;1.00;;;;;;5055794;28;20086;-62
2024/01/01 01:57:03;;;;;;;0.30;0.30;;;9.20;99.90;;;;;;5057904;28;20450;-63
2024/01/01 01:59:29;;;;;;;0.10;0.10;;;9.20;99.90;;;;;;5058308;28;20040;-62
2024/01/01 02:01:56;;;;;;;0.00;0.00;;;9.10;1.00;;;;;;5057707;28;20037;-63
2024/01/01 02:04:23;;;;;;;0.95;0.60;;;9.00;74.00;;;;;;5058234;28;20116;-62
2024/01/01 02:06:49;;;;;;;1.80;0.95;;;8.90;99.90;;;;;;5060404;28;20075;-62
2024/01/01 02:09:14;;;;;;;0.65;0.63;;;8.90;99.90;;;;;;5064106;28;20079;-62
2024/01/01 02:11:40;;;;;;;1.95;1.13;;;8.60;99.90;;;;;;5062997;28;20097;-62
2024/01/01 02:14:07;;;;;;;0.75;0.20;;;8.60;1.00;;;;;;5060290;28;20032;-62
2024/01/01 02:16:33;;;;;;;1.05;0.40;;;8.50;1.00;;;;;;5061035;28;20512;-62
2024/01/01 02:18:58;;;;;;;0.03;0.00;;;8.50;1.00;;;;;;5061927;28;20033;-63
2024/01/01 02:21:24;;;;;;;6.53;0.65;;;8.50;1.00;;;;;;5063354;28;20029;-62
2024/01/01 02:23:49;;;;;;;0.50;0.38;;;8.40;1.00;;;;;;5062047;28;20056;-62
2024/01/01 02:26:15;;;;;;;2.33;0.35;;;8.00;1.00;;;;;;5061925;28;20028;-62
2024/01/01 02:28:41;;;;;;;0.00;0.00;;;8.00;1.00;;;;;;5043519;28;20496;-62
2024/01/01 02:31:07;;;;;;;0.60;0.55;;;8.10;55.00;;;;;;5061151;28;20078;-63
2024/01/01 02:33:32;;;;;;;0.50;0.50;;;8.00;99.90;;;;;;5043650;28;20032;-63
2024/01/01 02:35:58;;;;;;;0.70;0.45;;;8.00;97.40;;;;;;5059045;28;20032;-63
2024/01/01 02:38:23;;;;;;;0.20;0.13;;;8.00;99.90;;;;;;5042174;28;20036;-62
2024/01/01 02:40:49;;;;;;;0.00;0.00;;;8.00;36.30;;;;;;5061630;28;20029;-63
2024/01/01 02:43:14;;;;;;;1.42;0.40;;;7.90;99.90;;;;;;5061920;28;20108;-62
2024/01/01 02:45:40;;;;;;;0.10;0.10;;;8.00;82.60;;;;;;5062319;28;20442;-62
2024/01/01 02:48:06;;;;;;;0.38;0.28;;;8.10;99.90;;;;;;5059956;28;20040;-63
2024/01/01 02:50:33;;;;;;;1.85;0.60;;;8.00;99.90;;;;;;5063107;28;20025;-63
2024/01/01 02:52:58;;;;;;;2.25;1.50;;;8.00;97.70;;;;;;5063259;28;20800;-62
2024/01/01 02:55:24;;;;;;;0.20;0.20;;;8.00;99.90;;;;;;5063680;28;20131;-63
2024/01/01 02:57:49;;;;;;;0.00;0.00;;;8.00;99.90;;;;;;5059952;28;20276;-63
2024/01/01 03:00:16;;;;;;;0.00;0.00;;;8.10;99.90;;;;;;5060922;28;20239;-62
2024/01/01 03:02:42;;;;;;;0.00;0.00;;;8.10;1.00;;;;;;5061293;28;20169;-63
2024/01/01 03:05:08;;;;;;;0.00;0.00;;;8.00;1.00;;;;;;5061440;28;20469;-63
2024/01/01 03:07:34;;;;;;;0.43;0.20;;;8.00;1.00;;;;;;5061595;28;20043;-62
2024/01/01 03:09:59;;;;;;;1.10;0.73;;;8.00;11.90;;;;;;5060814;28;20506;-62
2024/01/01 03:12:26;;;;;;;0.30;0.30;;;8.00;20.50;;;;;;5063291;28;20039;-63
2024/01/01 03:14:51;;;;;;;0.63;0.30;;;8.00;1.00;;;;;;5065166;28;20044;-62
2024/01/01 03:17:17;;;;;;;0.65;0.65;;;8.10;26.50;;;;;;5042719;28;20043;-63
2024/01/01 03:19:42;;;;;;;4.47;0.45;;;8.00;16.50;;;;;;5060743;28;20394;-63
2024/01/01 03:22:08;;;;;;;0.25;0.25;;;8.00;1.00;;;;;;5042183;28;20056;-63
2024/01/01 03:24:33;;;;;;;0.98;0.45;;;8.10;1.00;;;;;;5061930;28;20052;-63
2024/01/01 03:26:59;;;;;;;0.00;0.00;;;8.10;1.00;;;;;;5061660;28;20349;-62
2024/01/01 03:29:25;;;;;;;0.00;0.00;;;8.00;1.00;;;;;;5061756;28;20033;-62
2024/01/01 03:31:50;;;;;;;0.00;0.00;;;8.10;1.00;;;;;;5059288;28;20044;-63
2024/01/01 03:34:16;;;;;;;0.00;0.00;;;8.00;1.00;;;;;;5060239;28;20042;-62
2024/01/01 03:36:42;;;;;;;0.00;0.00;;;8.10;1.00;;;;;;5060227;28;20111;-62
2024/01/01 03:39:08;;;;;;;0.20;0.20;;;8.00;1.00;;;;;;5064723;28;20103;-62
2024/01/01 03:41:33;;;;;;;0.40;0.28;;;8.10;1.00;;;;;;5061326;28;20146;-63
2024/01/01 03:43:59;;;;;;;3.17;0.75;;;8.10;1.00;;;;;;5037994;28;20501;-63
2024/01/01 03:46:24;;;;;;;8.00;0.35;;;8.10;99.90;;;;;;5061061;28;20709;-62
2024/01/01 03:48:50;;;;;;;0.00;0.00;;;8.10;1.00;;;;;;5062388;28;20048;-62
2024/01/01 03:51:15;;;;;;;0.15;0.10;;;8.10;1.00;;;;;;5060570;28;20029;-62
2024/01/01 03:53:41;;;;;;;0.52;0.52;;;8.10;1.00;;;;;;5042452;28;20032;-63
2024/01/01 03:56:07;;;;;;;0.63;0.63;;;8.10;99.90;;;;;;5059614;28;20021;-62
2024/01/01 03:58:33;;;;;;;4.85;1.13;;;8.10;99.90;;;;;;5060197;28;20062;-63
2024/01/01 04:00:58;;;;;;;0.77;0.70;;;8.10;99.90;;;;;;5059332;28;20488;-62
2024/01/01 04:03:24;;;;;;;2.22;0.90;;;8.10;99.90;;;;;;5058143;28;20047;-62
2024/01/01 04:05:49;;;;;;;0.32;0.25;;;8.10;99.90;;;;;;5059285;28;20028;-62
2024/01/01 04:08:15;;;;;;;0.52;0.52;;;8.10;99.90;;;;;;5058838;28;20037;-63
2024/01/01 04:10:40;;;;;;;1.80;0.77;;;8.10;99.90;;;;;;5060062;28;20064;-63
2024/01/01 04:13:06;;;;;;;4.95;0.28;;;8.10;99.90;;;;;;5059779;28;20831;-62
2024/01/01 04:15:31;;;;;;;0.00;0.00;;;8.00;99.90;;;;;;5058779;28;20048;-62
2024/01/01 04:17:57;;;;;;;0.00;0.00;;;8.00;27.10;;;;;;5060017;28;20037;-63
2024/01/01 04:20:23;;;;;;;0.00;0.00;;;8.10;99.90;;;;;;5059625;28;20032;-62
2024/01/01 04:22:51;;;;;;;0.00;0.00;;;8.10;99.90;;;;;;5060338;28;20035;-60
2024/01/01 04:25:20;;;;;;;0.00;0.00;;;8.20;99.90;;;;;;5059233;28;20610;-60
2024/01/01 04:27:45;;;;;;;0.00;0.00;;;8.10;1.00;;;;;;5058508;28;20123;-59
2024/01/01 04:30:11;;;;;;;0.00;0.00;;;8.10;1.00;;;;;;5058560;28;20170;-61
2024/01/01 04:32:37;;;;;;;0.00;0.00;;;8.20;15.10;;;;;;5060047;28;20052;-60
2024/01/01 04:35:03;;;;;;;0.00;0.00;;;8.20;25.00;;;;;;5052728;28;20040;-60
2024/01/01 04:37:29;;;;;;;0.30;0.13;;;8.30;1.00;;;;;;5056334;28;20408;-60
2024/01/01 04:39:55;;;;;;;2.58;0.55;;;8.20;1.00;;;;;;5041811;28;20330;-60
2024/01/01 04:42:20;;;;;;;0.00;0.00;;;8.20;1.00;;;;;;5058278;28;20044;-60
2024/01/01 04:44:46;;;;;;;0.00;0.00;;;8.30;1.00;;;;;;5060924;28;20043;-60
2024/01/01 04:47:11;;;;;;;0.00;0.00;;;8.30;1.00;;;;;;5060507;28;20089;-61
2024/01/01 04:49:37;;;;;;;0.00;0.00;;;8.30;99.90;;;;;;5060366;28;20135;-61
2024/01/01 04:52:03;;;;;;;0.00;0.00;;;8.40;99.90;;;;;;5058465;28;20056;-60
2024/01/01 04:54:29;;;;;;;0.00;0.00;;;8.40;99.90;;;;;;5059547;28;20411;-59
2024/01/01 04:56:55;;;;;;;0.00;0.00;;;8.30;1.00;;;;;;5058392;28;20068;-61
2024/01/01 04:59:20;;;;;;;0.00;0.00;;;8.40;99.90;;;;;;5057786;28;20957;-60
2024/01/01 05:01:46;;;;;;;0.00;0.00;;;8.40;13.60;;;;;;5057961;28;20032;-61
2024/01/01 05:04:12;;;;;;;0.35;0.10;;;8.50;43.90;;;;;;5058008;28;20032;-61
2024/01/01 05:06:37;;;;;;;1.63;0.85;;;8.40;1.00;;;;;;5040189;28;20039;-60
2024/01/01 05:09:04;;;;;;;1.40;0.30;;;8.50;1.00;;;;;;5058507;28;20031;-61
2024/01/01 05:11:30;;;;;;;0.00;0.00;;;8.40;99.90;;;;;;5058574;28;20644;-60
2024/01/01 05:13:55;;;;;;;0.00;0.00;;;8.40;1.00;;;;;;5058981;28;20035;-61
2024/01/01 05:16:21;;;;;;;0.00;0.00;;;8.40;2.80;;;;;;5056624;28;20044;-60
2024/01/01 05:18:46;;;;;;;0.00;0.00;;;8.50;1.00;;;;;;5041995;28;20047;-60
2024/01/01 05:21:12;;;;;;;0.00;0.00;;;8.50;99.90;;;;;;5058177;28;20051;-62
2024/01/01 05:23:37;;;;;;;0.00;0.00;;;8.50;1.00;;;;;;5059585;28;20070;-62
2024/01/01 05:26:03;;;;;;;0.00;0.00;;;8.40;99.90;;;;;;5039514;28;20033;-63
2024/01/01 05:28:29;;;;;;;0.00;0.00;;;8.50;1.00;;;;;;5058183;28;20105;-62
2024/01/01 05:30:55;;;;;;;0.28;0.22;;;8.40;99.90;;;;;;5059035;28;20307;-62
2024/01/01 05:33:21;;;;;;;0.00;0.00;;;8.50;99.90;;;;;;5060654;28;20068;-63
2024/01/01 05:35:46;;;;;;;2.78;0.28;;;8.50;99.90;;;;;;5049985;28;20431;-62
2024/01/01 05:38:12;;;;;;;2.30;0.47;;;8.60;99.90;;;;;;5058291;28;20032;-63
2024/01/01 05:40:38;;;;;;;0.70;0.17;;;8.50;99.90;;;;;;5040828;28;20086;-64
2024/01/01 05:43:04;;;;;;;0.80;0.17;;;8.60;99.90;;;;;;5056945;28;20041;-63
2024/01/01 05:45:30;;;;;;;2.35;1.05;;;8.60;1.00;;;;;;5058518;28;20505;-62
2024/01/01 05:47:56;;;;;;;8.35;0.90;;;8.60;99.90;;;;;;5058868;28;20094;-62
2024/01/01 05:50:22;;;;;;;1.45;0.73;;;8.60;99.90;;;;;;5062547;28;20114;-62
2024/01/01 05:52:47;;;;;;;11.50;0.85;;;8.50;99.90;;;;;;5061691;28;20037;-61
2024/01/01 05:55:13;;;;;;;11.15;0.85;;;8.50;99.90;;;;;;5056978;28;20139;-61
2024/01/01 05:57:39;;;;;;;0.85;0.45;;;8.50;99.90;;;;;;5058369;28;20072;-60
2024/01/01 06:00:05;;;;;;;7.68;4.03;;;8.60;99.90;;;;;;5057427;28;20097;-60
2024/01/01 06:02:30;;;;;;;0.00;0.00;;;8.50;99.90;;;;;;5057905;28;20064;-60
2024/01/01 06:04:56;;;;;;;0.00;0.00;;;8.50;99.90;;;;;;5057236;28;20125;-60
2024/01/01 06:07:21;;;;;;;0.00;0.00;;;8.50;1.00;;;;;;5056814;28;20556;-61
2024/01/01 06:09:47;;;;;;;3.83;0.25;;;8.50;99.90;;;;;;5058554;28;20545;-61
2024/01/01 06:12:13;;;;;;;9.75;0.57;;;8.60;99.90;;;;;;5057703;28;20043;-60
2024/01/01 06:14:38;;;;;;;3.42;0.57;;;8.60;89.60;;;;;;5060258;28;20040;-61
2024/01/01 06:17:04;;;;;;;1.02;0.30;;;8.60;99.90;;;;;;5057826;28;21124;-61
2024/01/01 06:19:30;;;;;;;4.00;0.45;;;8.60;10.30;;;;;;5064052;28;20467;-60
2024/01/01 06:21:55;;;;;;;8.20;0.45;;;8.60;99.90;;;;;;5057889;28;20651;-60
2024/01/01 06:24:21;;;;;;;1.83;0.40;;;8.50;99.90;;;;;;5042882;28;20028;-60
2024/01/01 06:26:46;;;;;;;1.55;0.60;;;8.60;1.00;;;;;;5040831;28;20044;-61
2024/01/01 06:29:12;;;;;;;0.00;0.00;;;8.50;1.00;;;;;;5056112;28;20028;-61
2024/01/01 06:31:37;;;;;;;0.00;0.00;;;8.50;1.00;;;;;;5057627;28;20036;-60
2024/01/01 06:34:03;;;;;;;0.00;0.00;;;8.50;1.00;;;;;;5056637;28;20535;-61
2024/01/01 06:36:28;;;;;;;0.00;0.00;;;8.50;1.00;;;;;;5057961;28;20447;-61
2024/01/01 06:38:54;;;;;;;0.00;0.00;;;8.50;1.00;;;;;;5039230;28;20036;-60
2024/01/01 06:41:20;;;;;;;0.00;0.00;;;8.50;1.00;;;;;;5057399;28;20045;-60
2024/01/01 06:43:45;;;;;;;0.00;0.00;;;8.40;99.90;;;;;;5061617;28;20062;-60
2024/01/01 06:46:11;;;;;;;0.00;0.00;;;8.30;1.00;;;;;;5057559;28;20147;-61
2024/01/01 06:48:37;;;;;;;0.00;0.00;;;8.20;1.00;;;;;;5041184;28;20044;-60
2024/01/01 06:51:08;;;;;;;0.00;0.00;;;8.20;1.00;;;;;;5042145;28;20028;-61
2024/01/01 06:53:33;;;;;;;0.00;0.00;;;8.20;4.00;;;;;;5061758;28;20029;-61
2024/01/01 06:56:00;;;;;;;0.20;0.10;;;8.10;99.90;;;;;;5061876;28;20521;-60
2024/01/01 06:58:25;;;;;;;0.43;0.40;;;8.10;99.90;;;;;;5065315;28;20032;-60
2024/01/01 07:00:51;;;;;;;0.98;0.73;;;8.10;7.80;;;;;;5040720;28;20474;-62
2024/01/01 07:03:17;;;;;;;1.17;0.93;;;8.10;1.00;;;;;;5060933;28;20495;-63
2024/01/01 07:05:42;;;;;;;1.10;0.47;;;8.10;17.30;;;;;;5060986;28;20032;-62
2024/01/01 07:08:08;;;;;;;2.47;1.17;;;8.20;1.00;;;;;;5060205;28;20163;-62
2024/01/01 07:10:33;;;;;;;2.47;0.57;;;8.10;1.00;;;;;;5061382;28;20047;-62
2024/01/01 07:12:59;;;;;;;0.00;0.00;;;8.00;1.00;;;;;;5062170;28;20586;-62
2024/01/01 07:15:25;;;;;;;0.10;0.10;;;8.00;46.80;;;;;;5057193;28;20033;-62
2024/01/01 07:17:50;;;;;;;1.25;0.35;;;8.00;1.00;;;;;;5061738;28;20049;-62
2024/01/01 07:20:16;;;;;;;0.32;0.25;;;8.10;1.00;;;;;;5063732;28;20456;-62
2024/01/01 07:22:42;;;;;;;0.00;0.00;;;8.20;1.00;;;;;;5060877;28;20584;-62
2024/01/01 07:25:09;;;;;;;0.00;0.00;;;8.10;1.00;;;;;;5065205;28;20380;-62
2024/01/01 07:27:35;;;;;;;0.00;0.00;;;8.00;1.00;;;;;;5060144;28;20548;-62
2024/01/01 07:30:03;;;;;;;0.00;0.00;;;8.10;1.00;;;;;;5059968;28;20460;-62
2024/01/01 07:32:30;;;;;;;0.00;0.00;;;8.10;1.00;;;;;;5041350;28;20776;-62
2024/01/01 07:34:56;;;;;;;0.00;0.00;;;8.00;1.00;;;;;;5044054;28;20089;-62
2024/01/01 07:37:21;;;;;;;0.00;0.00;;;8.00;1.00;;;;;;5061697;28;20037;-62
2024/01/01 07:39:47;;;;;;;0.00;0.00;;;8.00;1.00;;;;;;5061793;28;20116;-62
2024/01/01 07:42:12;;;;;;;3.35;0.52;;;8.10;1.00;;;;;;5059175;28;20067;-62
2024/01/01 07:44:40;;;;;;;0.28;0.28;;;8.10;1.00;;;;;;5060426;28;20040;-62
2024/01/01 07:47:06;;;;;;;0.00;0.00;;;8.10;1.00;;;;;;5059938;28;20036;-63
2024/01/01 07:49:31;;;;;;;1.58;1.15;;;8.20;99.90;;;;;;5045910;28;20040;-62
2024/01/01 07:51:57;;;;;;;0.13;0.13;;;8.20;1.00;;;;;;5060939;28;20086;-62
2024/01/01 07:54:22;;;;;;;0.00;0.00;;;8.20;1.00;;;;;;5060155;28;20506;-62
2024/01/01 07:56:49;;;;;;;1.02;0.47;;;8.20;99.90;;;;;;5042390;28;20111;-62
2024/01/01 07:59:14;;;;;;;0.00;0.00;;;8.20;99.90;;;;;;5060210;28;20036;-62
2024/01/01 08:01:40;;;;;;;0.00;0.00;;;8.20;99.90;;;;;;5061082;28;20039;-62
2024/01/01 08:04:07;;;;;;;0.00;0.00;;;8.20;1.00;;;;;;5060021;28;20067;-62
2024/01/01 08:06:33;;;;;;;1.13;0.28;;;8.20;99.90;;;;;;5060168;28;20036;-62
2024/01/01 08:08:59;;;;;;;0.00;0.00;;;8.10;99.90;;;;;;5060191;28;20127;-63
2024/01/01 08:11:24;;;;;;;0.00;0.00;;;8.20;99.90;;;;;;5043142;28;20040;-60
2024/01/01 08:13:50;;;;;;;2.00;0.20;;;8.30;99.90;;;;;;5059455;28;20098;-61
2024/01/01 08:16:19;;;;;;;0.20;0.10;;;8.20;99.90;;;;;;5057260;28;20033;-60
2024/01/01 08:18:52;;;;;;;0.10;0.10;;;8.30;99.90;;;;;;5060655;28;20086;-60
2024/01/01 08:21:18;;;;;;;0.00;0.00;;;8.20;99.90;;;;;;5060039;28;20040;-61
2024/01/01 08:23:44;;;;;;;0.00;0.00;;;8.10;99.90;;;;;;5060894;28;20051;-60
2024/01/01 08:26:10;;;;;;;0.00;0.00;;;8.10;1.00;;;;;;5056312;28;20029;-61
2024/01/01 08:28:35;;;;;;;0.00;0.00;;;8.10;99.90;;;;;;5055910;28;20032;-61
2024/01/01 08:31:01;;;;;;;0.03;0.03;;;8.20;99.90;;;;;;5058666;28;20047;-60
2024/01/01 08:33:26;;;;;;;0.00;0.00;;;8.10;99.90;;;;;;5059296;28;20102;-61
2024/01/01 08:35:53;;;;;;;0.00;0.00;;;8.10;99.90;;;;;;5059201;28;20411;-60
2024/01/01 08:38:19;;;;;;;0.00;0.00;;;8.20;99.90;;;;;;5058787;28;20048;-60
2024/01/01 08:40:45;;;;;;;0.00;0.00;;;8.10;1.00;;;;;;5059965;28;20209;-61
2024/01/01 08:43:10;;;;;;;0.00;0.00;;;8.20;1.00;;;;;;5062958;28;20036;-60
2024/01/01 08:45:37;;;;;;;0.00;0.00;;;8.10;1.00;;;;;;5059630;28;20113;-60
2024/01/01 08:48:03;;;;;;;0.00;0.00;;;8.10;1.00;;;;;;5059336;28;20044;-60
2024/01/01 08:50:28;;;;;;;0.00;0.00;;;8.10;99.90;;;;;;5059113;28;20043;-61
2024/01/01 08:52:54;;;;;;;0.00;0.00;;;8.10;1.00;;;;;;5059006;28;20045;-61
2024/01/01 08:55:19;;;;;;;0.00;0.00;;;8.20;1.00;;;;;;5059279;28;20037;-60
2024/01/01 08:57:45;;;;;;;0.00;0.00;;;8.20;99.90;;;;;;5059765;28;20932;-62
2024/01/01 09:00:12;;;;;;;0.00;0.00;;;8.30;99.90;;;;;;5058402;28;20052;-60
2024/01/01 09:02:37;;;;;;;0.00;0.00;;;8.20;99.90;;;;;;5058893;28;20059;-62
2024/01/01 09:05:03;;;;;;;0.00;0.00;;;8.20;99.90;;;;;;5055064;28;20605;-62
2024/01/01 09:07:29;;;;;;;0.00;0.00;;;8.30;99.90;;;;;;5058535;28;20811;-62
2024/01/01 09:09:54;;;;;;;0.00;0.00;;;8.30;99.90;;;;;;5059259;28;20387;-66
2024/01/01 09:12:20;;;;;;;0.00;0.00;;;8.30;99.90;;;;;;5058142;28;20186;-61
2024/01/01 09:14:46;;;;;;;0.00;0.00;;;8.30;99.90;;;;;;5060236;28;20166;-60
2024/01/01 09:17:11;;;;;;;0.10;0.10;;;8.20;99.90;;;;;;5059587;28;20177;-61
2024/01/01 09:19:40;;;;;;;0.00;0.00;;;8.20;99.90;;;;;;5060487;28;20089;-61
2024/01/01 09:22:05;;;;;;;0.28;0.15;;;8.20;1.00;;;;;;5058551;28;20455;-62
2024/01/01 09:24:31;;;;;;;0.30;0.30;;;8.30;99.90;;;;;;5059116;28;20029;-62
2024/01/01 09:26:58;;;;;;;1.27;0.50;;;8.30;99.90;;;;;;5057646;28;20541;-62
2024/01/01 09:29:24;;;;;;;0.13;0.13;;;8.30;99.90;;;;;;5058540;28;20108;-62
2024/01/01 09:31:50;;;;;;;0.20;0.20;;;8.30;99.90;;;;;;5058776;28;20143;-62
2024/01/01 09:34:15;;;;;;;0.00;0.00;;;8.40;99.90;;;;;;5057009;28;20044;-62
2024/01/01 09:36:41;;;;;;;0.00;0.00;;;8.50;99.90;;;;;;5055485;28;20513;-62
2024/01/01 09:39:07;;;;;;;0.00;0.00;;;8.50;99.90;;;;;;5057419;28;20041;-62
2024/01/01 09:41:33;;;;;;;0.00;0.00;;;8.50;99.90;;;;;;5057177;28;20028;-62
2024/01/01 09:43:59;;;;;;;0.00;0.00;;;8.60;99.90;;;;;;5058617;28;20036;-62
2024/01/01 09:46:28;;;;;;;0.00;0.00;;;8.60;99.90;;;;;;5056528;28;20040;-62
2024/01/01 09:48:54;;;;;;;0.00;0.00;;;8.60;99.90;;;;;;5058868;28;20152;-62
2024/01/01 09:51:19;;;;;;;0.00;0.00;;;8.60;99.90;;;;;;5058796;28;20124;-62
2024/01/01 09:53:45;;;;;;;0.08;0.08;;;8.60;28.80;;;;;;5058770;28;20429;-62
2024/01/01 09:56:12;;;;;;;0.65;0.20;;;8.60;99.90;;;;;;5057648;28;20036;-62
2024/01/01 09:58:41;;;;;;;0.57;0.57;;;8.60;99.90;;;;;;5059276;28;20128;-62
2024/01/01 10:01:19;;;;;;;0.00;0.00;;;8.60;54.70;;;;;;5057328;28;20041;-62
2024/01/01 10:04:00;;;;;;;0.00;0.00;;;8.60;99.90;;;;;;5058370;28;20444;-62
2024/01/01 10:06:25;;;;;;;0.20;0.10;;;8.60;99.90;;;;;;5053441;28;20094;-62
2024/01/01 10:08:51;;;;;;;0.90;0.25;;;8.60;99.90;;;;;;5057650;28;20036;-62
2024/01/01 10:11:20;;;;;;;1.88;0.43;;;8.60;99.90;;;;;;5057396;28;20036;-62
2024/01/01 10:13:47;;;;;;;0.22;0.22;;;8.70;99.90;;;;;;5056595;28;20041;-62
2024/01/01 10:16:26;;;;;;;0.10;0.10;;;8.80;24.80;;;;;;5056110;28;20597;-62
2024/01/01 10:18:56;;;;;;;1.85;0.45;;;8.80;27.50;;;;;;5056968;28;20044;-62
2024/01/01 10:21:35;;;;;;;0.52;0.20;;;8.80;1.00;;;;;;5055174;28;20825;-60
2024/01/01 10:24:13;;;;;;;2.92;0.15;;;8.80;1.00;;;;;;5038087;28;20128;-62
2024/01/01 10:26:46;;;;;;;2.65;0.20;;;8.80;1.00;;;;;;5059798;28;20040;-60
2024/01/01 10:29:13;;;;;;;1.03;0.63;;;8.90;1.00;;;;;;5060361;28;20130;-60
2024/01/01 10:31:47;;;;;;;0.17;0.17;;;8.80;1.00;;;;;;5060989;28;20036;-61
2024/01/01 10:34:12;;;;;;;0.00;0.00;;;8.90;1.00;;;;;;5060296;28;20032;-64
2024/01/01 10:36:41;;;;;;;0.00;0.00;;;8.90;99.90;;;;;;5060697;28;20426;-65
2024/01/01 10:39:08;;;;;;;0.43;0.13;;;9.00;1.00;;;;;;5061359;28;20561;-65
2024/01/01 10:41:35;;;;;;;3.42;0.32;;;8.90;99.90;;;;;;5063612;28;20032;-64
2024/01/01 10:44:03;;;;;;;0.00;0.00;;;8.90;1.00;;;;;;5061355;28;20040;-66
2024/01/01 10:46:34;;;;;;;0.20;0.20;;;8.90;1.00;;;;;;5045139;28;20040;-64
2024/01/01 10:49:02;;;;;;;0.00;0.00;;;8.80;1.00;;;;;;5061419;28;20036;-65
2024/01/01 10:51:31;;;;;;;3.08;1.13;;;8.80;1.00;;;;;;5062279;28;20562;-65
2024/01/01 10:54:13;;;;;;;0.22;0.22;;;8.80;1.00;;;;;;5063655;28;20554;-66
2024/01/01 10:56:47;;;;;;;0.73;0.47;;;8.80;1.00;;;;;;5061617;28;20032;-66
2024/01/01 10:59:19;;;;;;;2.20;1.38;;;8.80;1.00;;;;;;5061406;28;20296;-65
2024/01/01 11:01:48;;;;;;;0.00;0.00;;;8.90;1.00;;;;;;5058783;28;20036;-66
2024/01/01 11:04:18;;;;;;;0.22;0.00;;;8.90;1.00;;;;;;5042595;28;20047;-65
2024/01/01 11:06:47;;;;;;;0.20;0.17;;;9.00;99.90;;;;;;5039965;28;20128;-65
2024/01/01 11:09:19;;;;;;;0.90;0.55;;;8.90;1.00;;;;;;5041730;28;20412;-65
2024/01/01 11:11:49;;;;;;;0.05;0.05;;;8.90;1.00;;;;;;5057351;28;20045;-65
2024/01/01 11:14:26;;;;;;;1.00;0.43;;;8.90;1.00;;;;;;5055943;28;20037;-65
2024/01/01 11:16:53;;;;;;;2.58;0.80;;;9.00;8.20;;;;;;5061205;28;20072;-65
2024/01/01 11:19:35;;;;;;;0.00;0.00;;;9.00;4.40;;;;;;5061737;28;20043;-65
2024/01/01 11:22:20;;;;;;;0.00;0.00;;;9.10;1.00;;;;;;5052789;28;20884;-65
2024/01/01 11:24:47;;;;;;;4.82;0.70;;;9.10;1.00;;;;;;5060018;28;20250;-65
2024/01/01 11:27:32;;;;;;;0.00;0.00;;;9.10;1.00;;;;;;5057887;28;20033;-65
2024/01/01 11:30:06;;;;;;;2.92;0.35;;;9.10;1.00;;;;;;5043914;28;20036;-65
2024/01/01 11:32:34;;;;;;;0.00;0.00;;;9.10;1.00;;;;;;5060010;28;20041;-65
2024/01/01 11:35:07;;;;;;;5.40;0.52;;;9.10;1.00;;;;;;5058710;28;20036;-64
2024/01/01 11:37:34;;;;;;;5.40;0.15;;;9.10;1.00;;;;;;5050199;28;20032;-65
2024/01/01 11:40:02;;;;;;;2.53;0.40;;;9.10;1.00;;;;;;5058355;28;20048;-65
2024/01/01 11:42:28;;;;;;;0.10;0.10;;;9.10;1.00;;;;;;5041338;28;20415;-64
2024/01/01 11:45:07;;;;;;;0.00;0.00;;;9.10;1.00;;;;;;5059777;28;20050;-65
2024/01/01 11:47:33;;;;;;;4.47;0.73;;;9.10;99.90;;;;;;5056914;28;20535;-65
2024/01/01 11:50:04;;;;;;;0.70;0.55;;;9.10;99.90;;;;;;5060472;28;20214;-65
2024/01/01 11:52:30;;;;;;;0.43;0.10;;;9.20;1.00;;;;;;5059797;28;20097;-65
2024/01/01 11:54:56;;;;;;;1.13;0.05;;;9.20;3.20;;;;;;5060619;28;20040;-65
2024/01/01 11:57:22;;;;;;;2.65;0.38;;;9.20;1.00;;;;;;5059201;28;20077;-65
2024/01/01 11:59:51;;;;;;;0.00;0.00;;;9.10;1.00;;;;;;5059806;28;20047;-65
2024/01/01 12:02:17;;;;;;;0.00;0.00;;;9.10;1.00;;;;;;5057260;28;20079;-64
2024/01/01 12:04:49;;;;;;;0.90;0.73;;;9.20;1.00;;;;;;5040173;28;20040;-64
2024/01/01 12:07:32;;;;;;;0.50;0.30;;;9.20;1.00;;;;;;5057216;28;20244;-64
2024/01/01 12:10:09;;;;;;;0.20;0.20;;;9.30;1.00;;;;;;5059141;28;20146;-64
2024/01/01 12:12:39;;;;;;;0.45;0.45;;;9.20;99.90;;;;;;5060155;28;20547;-65
2024/01/01 12:15:09;;;;;;;4.18;1.92;;;9.30;99.90;;;;;;5052002;28;20064;-65
2024/01/01 12:17:53;;;;;;;0.00;0.00;;;9.20;99.90;;;;;;5058007;28;20066;-65
2024/01/01 12:20:22;;;;;;;0.00;0.00;;;9.20;99.90;;;;;;5059499;28;20558;-65
2024/01/01 12:22:48;;;;;;;1.85;0.40;;;9.30;99.90;;;;;;5060272;28;20562;-65
2024/01/01 12:25:22;;;;;;;1.23;1.13;;;9.30;99.90;;;;;;5060517;28;20162;-65
2024/01/01 12:28:07;;;;;;;0.00;0.00;;;9.20;99.90;;;;;;5058873;28;20036;-65
2024/01/01 12:30:34;;;;;;;6.45;0.63;;;9.20;99.90;;;;;;5058310;28;20029;-65
2024/01/01 12:32:59;;;;;;;0.03;0.03;;;9.20;99.90;;;;;;5058532;28;20120;-65
2024/01/01 12:35:25;;;;;;;0.00;0.00;;;9.20;99.90;;;;;;5057114;28;20039;-65
2024/01/01 12:37:51;;;;;;;0.00;0.00;;;9.20;99.90;;;;;;5057962;28;20060;-65
2024/01/01 12:40:17;;;;;;;0.60;0.30;;;9.30;99.90;;;;;;5053432;28;20047;-65
2024/01/01 12:42:44;;;;;;;0.75;0.40;;;9.20;99.90;;;;;;5059246;28;20054;-65
2024/01/01 12:45:12;;;;;;;5.68;0.98;;;9.30;99.90;;;;;;5058286;28;20150;-65
2024/01/01 12:47:38;;;;;;;0.80;0.47;;;9.20;99.90;;;;;;5056492;28;20040;-65
2024/01/01 12:50:05;;;;;;;4.43;0.77;;;9.20;99.90;;;;;;5059683;28;20529;-65
2024/01/01 12:52:30;;;;;;;4.28;1.10;;;9.20;99.90;;;;;;5058889;28;20037;-65
2024/01/01 12:54:56;;;;;;;2.85;1.85;;;9.20;99.90;;;;;;5057873;28;20048;-65
2024/01/01 12:57:21;;;;;;;3.63;0.43;;;9.30;30.30;;;;;;5057398;28;20040;-65
2024/01/01 12:59:47;;;;;;;2.17;0.70;;;9.40;32.90;;;;;;5058913;28;20033;-65